sensor_id;sensor_type;location;lat;lon;timestamp;pressure;altitude;pressure_sealevel;temperature;humidity
46129;BME280;31860;45.186;5.790;2023-07-02T00:01:06;98948.19;;;22.86;100.00
46129;BME280;31860;45.186;5.790;2023-07-02T00:03:31;98943.88;;;22.84;100.00
46129;BME280;31860;45.186;5.790;2023-07-02T00:05:56;98950.94;;;22.85;100.00
46129;BME280;31860;45.186;5.790;2023-07-02T00:08:22;98944.72;;;22.84;100.00
46129;BME280;31860;45.186;5.790;2023-07-02T00:10:48;98942.16;;;22.83;100.00
46129;BME280;31860;45.186;5.790;2023-07-02T00:13:14;98943.94;;;22.82;100.00
46129;BME280;31860;45.186;5.790;2023-07-02T00:15:40;98948.41;;;22.82;100.00
46129;BME280;31860;45.186;5.790;2023-07-02T00:18:05;98950.25;;;22.81;100.00
46129;BME280;31860;45.186;5.790;2023-07-02T00:20:31;98954.59;;;22.82;100.00
46129;BME280;31860;45.186;5.790;2023-07-02T00:23:00;98951.06;;;22.82;100.00
46129;BME280;31860;45.186;5.790;2023-07-02T00:25:26;98949.38;;;22.81;100.00
46129;BME280;31860;45.186;5.790;2023-07-02T00:27:51;98950.25;;;22.81;100.00
46129;BME280;31860;45.186;5.790;2023-07-02T00:30:17;98954.59;;;22.82;100.00
46129;BME280;31860;45.186;5.790;2023-07-02T00:32:42;98958.28;;;22.80;100.00
46129;BME280;31860;45.186;5.790;2023-07-02T00:35:07;98947.72;;;22.78;100.00
46129;BME280;31860;45.186;5.790;2023-07-02T00:37:33;98949.53;;;22.78;100.00
46129;BME280;31860;45.186;5.790;2023-07-02T00:39:58;98954.78;;;22.79;100.00
46129;BME280;31860;45.186;5.790;2023-07-02T00:42:23;98948.59;;;22.79;100.00
46129;BME280;31860;45.186;5.790;2023-07-02T00:44:51;98952.13;;;22.79;100.00
46129;BME280;31860;45.186;5.790;2023-07-02T00:47:17;98955.63;;;22.80;100.00
46129;BME280;31860;45.186;5.790;2023-07-02T00:49:43;98957.44;;;22.79;100.00
46129;BME280;31860;45.186;5.790;2023-07-02T00:52:08;98959.25;;;22.79;100.00
46129;BME280;31860;45.186;5.790;2023-07-02T00:54:34;98956.59;;;22.79;100.00
46129;BME280;31860;45.186;5.790;2023-07-02T00:57:01;98965.44;;;22.79;100.00
46129;BME280;31860;45.186;5.790;2023-07-02T00:59:31;98962.78;;;22.79;100.00
46129;BME280;31860;45.186;5.790;2023-07-02T01:01:59;98969.81;;;22.80;100.00
46129;BME280;31860;45.186;5.790;2023-07-02T01:04:24;98968.94;;;22.80;100.00
46129;BME280;31860;45.186;5.790;2023-07-02T01:06:52;98970.75;;;22.79;100.00
46129;BME280;31860;45.186;5.790;2023-07-02T01:09:22;98961.91;;;22.79;100.00
46129;BME280;31860;45.186;5.790;2023-07-02T01:11:56;98972.66;;;22.77;100.00
46129;BME280;31860;45.186;5.790;2023-07-02T01:14:26;98967.41;;;22.76;100.00
46129;BME280;31860;45.186;5.790;2023-07-02T01:16:55;98960.34;;;22.75;100.00
46129;BME280;31860;45.186;5.790;2023-07-02T01:19:42;98970.06;;;22.76;100.00
46129;BME280;31860;45.186;5.790;2023-07-02T01:22:09;98959.66;;;22.71;100.00
46129;BME280;31860;45.186;5.790;2023-07-02T01:24:36;98956.13;;;22.71;100.00
46129;BME280;31860;45.186;5.790;2023-07-02T01:27:02;98943.84;;;22.68;100.00
46129;BME280;31860;45.186;5.790;2023-07-02T01:29:30;98952.84;;;22.66;100.00
46129;BME280;31860;45.186;5.790;2023-07-02T01:31:56;98953.75;;;22.65;100.00
46129;BME280;31860;45.186;5.790;2023-07-02T01:34:22;98954.72;;;22.64;100.00
46129;BME280;31860;45.186;5.790;2023-07-02T01:36:48;98960.91;;;22.64;100.00
46129;BME280;31860;45.186;5.790;2023-07-02T01:39:13;98964.41;;;22.65;100.00
46129;BME280;31860;45.186;5.790;2023-07-02T01:41:48;98959.97;;;22.65;100.00
46129;BME280;31860;45.186;5.790;2023-07-02T01:44:14;98959.97;;;22.65;100.00
46129;BME280;31860;45.186;5.790;2023-07-02T01:46:39;98961.75;;;22.65;100.00
46129;BME280;31860;45.186;5.790;2023-07-02T01:49:05;98958.25;;;22.64;100.00
46129;BME280;31860;45.186;5.790;2023-07-02T01:51:30;98963.59;;;22.64;100.00
46129;BME280;31860;45.186;5.790;2023-07-02T01:53:55;98960.84;;;22.66;100.00
46129;BME280;31860;45.186;5.790;2023-07-02T01:56:20;98963.50;;;22.66;100.00
46129;BME280;31860;45.186;5.790;2023-07-02T01:58:46;98967.94;;;22.65;100.00
46129;BME280;31860;45.186;5.790;2023-07-02T02:01:11;98963.50;;;22.66;100.00
46129;BME280;31860;45.186;5.790;2023-07-02T02:03:36;98967.09;;;22.65;100.00
46129;BME280;31860;45.186;5.790;2023-07-02T02:06:02;98962.72;;;22.64;100.00
46129;BME280;31860;45.186;5.790;2023-07-02T02:08:27;98967.25;;;22.62;100.00
46129;BME280;31860;45.186;5.790;2023-07-02T02:10:52;98965.59;;;22.59;100.00
46129;BME280;31860;45.186;5.790;2023-07-02T02:13:18;98955.13;;;22.56;100.00
46129;BME280;31860;45.186;5.790;2023-07-02T02:15:43;98955.19;;;22.54;100.00
46129;BME280;31860;45.186;5.790;2023-07-02T02:18:08;98961.44;;;22.53;100.00
46129;BME280;31860;45.186;5.790;2023-07-02T02:20:34;98963.25;;;22.53;100.00
46129;BME280;31860;45.186;5.790;2023-07-02T02:22:59;98965.03;;;22.52;100.00
46129;BME280;31860;45.186;5.790;2023-07-02T02:25:24;98964.19;;;22.52;100.00
46129;BME280;31860;45.186;5.790;2023-07-02T02:27:50;98967.63;;;22.54;100.00
46129;BME280;31860;45.186;5.790;2023-07-02T02:30:15;98958.84;;;22.52;100.00
46129;BME280;31860;45.186;5.790;2023-07-02T02:32:41;98957.06;;;22.52;100.00
46129;BME280;31860;45.186;5.790;2023-07-02T02:35:07;98958.84;;;22.52;100.00
46129;BME280;31860;45.186;5.790;2023-07-02T02:37:34;98956.09;;;22.53;100.00
46129;BME280;31860;45.186;5.790;2023-07-02T02:40:00;98959.53;;;22.55;100.00
46129;BME280;31860;45.186;5.790;2023-07-02T02:42:25;98963.13;;;22.56;100.00
46129;BME280;31860;45.186;5.790;2023-07-02T02:44:51;98956.00;;;22.56;100.00
46129;BME280;31860;45.186;5.790;2023-07-02T02:47:16;98960.38;;;22.57;100.00
46129;BME280;31860;45.186;5.790;2023-07-02T02:49:41;98959.44;;;22.58;100.00
46129;BME280;31860;45.186;5.790;2023-07-02T02:52:07;98956.78;;;22.58;100.00
46129;BME280;31860;45.186;5.790;2023-07-02T02:54:32;98956.69;;;22.60;100.00
46129;BME280;31860;45.186;5.790;2023-07-02T02:56:57;98958.56;;;22.58;100.00
46129;BME280;31860;45.186;5.790;2023-07-02T02:59:23;98958.66;;;22.56;100.00
46129;BME280;31860;45.186;5.790;2023-07-02T03:01:48;98958.72;;;22.55;100.00
46129;BME280;31860;45.186;5.790;2023-07-02T03:04:14;98951.66;;;22.54;100.00
46129;BME280;31860;45.186;5.790;2023-07-02T03:06:39;98946.31;;;22.54;100.00
46129;BME280;31860;45.186;5.790;2023-07-02T03:09:04;98948.06;;;22.55;100.00
46129;BME280;31860;45.186;5.790;2023-07-02T03:11:30;98949.94;;;22.53;100.00
46129;BME280;31860;45.186;5.790;2023-07-02T03:13:55;98948.13;;;22.53;100.00
46129;BME280;31860;45.186;5.790;2023-07-02T03:16:20;98957.94;;;22.53;100.00
46129;BME280;31860;45.186;5.790;2023-07-02T03:18:46;98957.16;;;22.51;100.00
46129;BME280;31860;45.186;5.790;2023-07-02T03:21:12;98954.47;;;22.51;100.00
46129;BME280;31860;45.186;5.790;2023-07-02T03:23:37;98952.75;;;22.50;100.00
46129;BME280;31860;45.186;5.790;2023-07-02T03:26:03;98951.97;;;22.48;100.00
46129;BME280;31860;45.186;5.790;2023-07-02T03:28:28;98957.38;;;22.46;100.00
46129;BME280;31860;45.186;5.790;2023-07-02T03:30:53;98951.25;;;22.44;100.00
46129;BME280;31860;45.186;5.790;2023-07-02T03:33:19;98943.34;;;22.43;100.00
46129;BME280;31860;45.186;5.790;2023-07-02T03:35:44;98944.28;;;22.42;100.00
46129;BME280;31860;45.186;5.790;2023-07-02T03:38:10;98950.56;;;22.41;100.00
46129;BME280;31860;45.186;5.790;2023-07-02T03:40:35;98948.06;;;22.38;100.00
46129;BME280;31860;45.186;5.790;2023-07-02T03:43:00;98948.06;;;22.38;100.00
46129;BME280;31860;45.186;5.790;2023-07-02T03:45:26;98950.66;;;22.39;100.00
46129;BME280;31860;45.186;5.790;2023-07-02T03:47:51;98951.50;;;22.40;100.00
46129;BME280;31860;45.186;5.790;2023-07-02T03:50:17;98959.41;;;22.41;100.00
46129;BME280;31860;45.186;5.790;2023-07-02T03:52:43;98957.59;;;22.42;100.00
46129;BME280;31860;45.186;5.790;2023-07-02T03:55:08;98952.28;;;22.42;100.00
46129;BME280;31860;45.186;5.790;2023-07-02T03:57:33;98946.94;;;22.42;100.00
46129;BME280;31860;45.186;5.790;2023-07-02T03:59:59;98946.94;;;22.42;100.00
46129;BME280;31860;45.186;5.790;2023-07-02T04:02:24;98947.81;;;22.42;100.00
46129;BME280;31860;45.186;5.790;2023-07-02T04:04:49;98951.34;;;22.43;100.00
46129;BME280;31860;45.186;5.790;2023-07-02T04:07:15;98951.34;;;22.43;100.00
46129;BME280;31860;45.186;5.790;2023-07-02T04:09:41;98957.53;;;22.43;100.00
46129;BME280;31860;45.186;5.790;2023-07-02T04:12:06;98954.00;;;22.43;100.00
46129;BME280;31860;45.186;5.790;2023-07-02T04:14:32;98956.59;;;22.44;100.00
46129;BME280;31860;45.186;5.790;2023-07-02T04:16:57;98955.72;;;22.44;100.00
46129;BME280;31860;45.186;5.790;2023-07-02T04:19:23;98954.00;;;22.43;100.00
46129;BME280;31860;45.186;5.790;2023-07-02T04:21:48;98958.47;;;22.42;100.00
46129;BME280;31860;45.186;5.790;2023-07-02T04:24:13;98952.28;;;22.42;100.00
46129;BME280;31860;45.186;5.790;2023-07-02T04:26:39;98960.34;;;22.40;100.00
46129;BME280;31860;45.186;5.790;2023-07-02T04:29:10;98963.88;;;22.41;100.00
46129;BME280;31860;45.186;5.790;2023-07-02T04:31:36;98960.34;;;22.40;100.00
46129;BME280;31860;45.186;5.790;2023-07-02T04:34:03;98961.28;;;22.39;100.00
46129;BME280;31860;45.186;5.790;2023-07-02T04:36:28;98964.88;;;22.38;100.00
46129;BME280;31860;45.186;5.790;2023-07-02T04:38:54;98967.53;;;22.38;100.00
46129;BME280;31860;45.186;5.790;2023-07-02T04:41:19;98964.03;;;22.38;100.00
46129;BME280;31860;45.186;5.790;2023-07-02T04:43:44;98966.63;;;22.39;100.00
46129;BME280;31860;45.186;5.790;2023-07-02T04:46:11;98969.28;;;22.39;100.00
46129;BME280;31860;45.186;5.790;2023-07-02T04:48:37;98966.63;;;22.39;100.00
46129;BME280;31860;45.186;5.790;2023-07-02T04:51:03;98967.50;;;22.40;100.00
46129;BME280;31860;45.186;5.790;2023-07-02T04:53:28;98968.41;;;22.39;100.00
46129;BME280;31860;45.186;5.790;2023-07-02T04:55:53;98970.22;;;22.38;100.00
46129;BME280;31860;45.186;5.790;2023-07-02T04:58:19;98973.81;;;22.37;100.00
46129;BME280;31860;45.186;5.790;2023-07-02T05:00:44;98974.75;;;22.36;100.00
46129;BME280;31860;45.186;5.790;2023-07-02T05:03:09;98969.41;;;22.36;100.00
46129;BME280;31860;45.186;5.790;2023-07-02T05:05:35;98971.16;;;22.37;100.00
46129;BME280;31860;45.186;5.790;2023-07-02T05:08:00;98973.03;;;22.35;100.00
46129;BME280;31860;45.186;5.790;2023-07-02T05:10:25;98979.16;;;22.37;100.00
46129;BME280;31860;45.186;5.790;2023-07-02T05:12:51;98977.34;;;22.38;100.00
46129;BME280;31860;45.186;5.790;2023-07-02T05:15:16;98988.00;;;22.38;100.00
46129;BME280;31860;45.186;5.790;2023-07-02T05:17:41;98981.72;;;22.39;100.00
46129;BME280;31860;45.186;5.790;2023-07-02T05:20:07;98987.03;;;22.39;100.00
46129;BME280;31860;45.186;5.790;2023-07-02T05:22:33;98992.28;;;22.40;100.00
46129;BME280;31860;45.186;5.790;2023-07-02T05:24:58;98994.03;;;22.41;100.00
46129;BME280;31860;45.186;5.790;2023-07-02T05:27:23;98993.06;;;22.42;100.00
46129;BME280;31860;45.186;5.790;2023-07-02T05:29:49;98993.00;;;22.44;100.00
46129;BME280;31860;45.186;5.790;2023-07-02T05:32:14;98993.84;;;22.44;100.00
46129;BME280;31860;45.186;5.790;2023-07-02T05:34:40;98996.44;;;22.46;100.00
46129;BME280;31860;45.186;5.790;2023-07-02T05:37:05;98991.97;;;22.46;100.00
46129;BME280;31860;45.186;5.790;2023-07-02T05:39:31;98999.97;;;22.46;100.00
46129;BME280;31860;45.186;5.790;2023-07-02T05:41:56;99000.84;;;22.47;100.00
46129;BME280;31860;45.186;5.790;2023-07-02T05:44:22;98999.03;;;22.47;100.00
46129;BME280;31860;45.186;5.790;2023-07-02T05:46:48;99001.72;;;22.47;100.00
46129;BME280;31860;45.186;5.790;2023-07-02T05:49:13;99004.38;;;22.47;100.00
46129;BME280;31860;45.186;5.790;2023-07-02T05:51:39;99001.63;;;22.49;100.00
46129;BME280;31860;45.186;5.790;2023-07-02T05:54:04;99000.75;;;22.48;100.00
46129;BME280;31860;45.186;5.790;2023-07-02T05:56:30;99007.78;;;22.49;100.00
46129;BME280;31860;45.186;5.790;2023-07-02T05:58:55;99005.13;;;22.49;100.00
46129;BME280;31860;45.186;5.790;2023-07-02T06:01:21;99002.41;;;22.51;100.00
46129;BME280;31860;45.186;5.790;2023-07-02T06:03:49;99012.19;;;22.50;100.00
46129;BME280;31860;45.186;5.790;2023-07-02T06:06:14;99008.56;;;22.51;100.00
46129;BME280;31860;45.186;5.790;2023-07-02T06:08:40;99008.56;;;22.51;100.00
46129;BME280;31860;45.186;5.790;2023-07-02T06:11:05;99023.72;;;22.51;100.00
46129;BME280;31860;45.186;5.790;2023-07-02T06:13:30;99017.44;;;22.52;100.00
46129;BME280;31860;45.186;5.790;2023-07-02T06:15:56;99030.75;;;22.52;100.00
46129;BME280;31860;45.186;5.790;2023-07-02T06:18:22;99034.28;;;22.52;100.00
46129;BME280;31860;45.186;5.790;2023-07-02T06:20:47;99026.19;;;22.54;100.00
46129;BME280;31860;45.186;5.790;2023-07-02T06:23:13;99035.88;;;22.56;100.00
46129;BME280;31860;45.186;5.790;2023-07-02T06:25:38;99036.66;;;22.58;100.00
46129;BME280;31860;45.186;5.790;2023-07-02T06:28:03;99039.34;;;22.58;100.00
46129;BME280;31860;45.186;5.790;2023-07-02T06:30:29;99035.81;;;22.58;100.00
46129;BME280;31860;45.186;5.790;2023-07-02T06:32:54;99038.38;;;22.59;100.00
46129;BME280;31860;45.186;5.790;2023-07-02T06:35:20;99037.44;;;22.61;100.00
46129;BME280;31860;45.186;5.790;2023-07-02T06:37:46;99036.50;;;22.62;100.00
46129;BME280;31860;45.186;5.790;2023-07-02T06:40:12;99040.91;;;22.63;100.00
46129;BME280;31860;45.186;5.790;2023-07-02T06:42:37;99046.22;;;22.63;100.00
46129;BME280;31860;45.186;5.790;2023-07-02T06:45:03;99051.56;;;22.63;100.00
46129;BME280;31860;45.186;5.790;2023-07-02T06:47:29;99048.81;;;22.64;100.00
46129;BME280;31860;45.186;5.790;2023-07-02T06:49:54;99052.31;;;22.65;100.00
46129;BME280;31860;45.186;5.790;2023-07-02T06:52:20;99053.19;;;22.65;100.00
46129;BME280;31860;45.186;5.790;2023-07-02T06:54:45;99055.75;;;22.67;100.00
46129;BME280;31860;45.186;5.790;2023-07-02T06:57:12;99058.38;;;22.68;100.00
46129;BME280;31860;45.186;5.790;2023-07-02T06:59:38;99047.63;;;22.70;100.00
46129;BME280;31860;45.186;5.790;2023-07-02T07:02:03;99051.91;;;22.72;100.00
46129;BME280;31860;45.186;5.790;2023-07-02T07:04:29;99056.22;;;22.75;100.00
46129;BME280;31860;45.186;5.790;2023-07-02T07:06:54;99051.59;;;22.78;100.00
46129;BME280;31860;45.186;5.790;2023-07-02T07:09:22;99047.16;;;22.79;100.00
46129;BME280;31860;45.186;5.790;2023-07-02T07:11:48;99047.16;;;22.79;100.00
46129;BME280;31860;45.186;5.790;2023-07-02T07:14:13;99045.28;;;22.81;100.00
46129;BME280;31860;45.186;5.790;2023-07-02T07:16:39;99043.38;;;22.83;100.00
46129;BME280;31860;45.186;5.790;2023-07-02T07:19:05;99047.75;;;22.84;100.00
46129;BME280;31860;45.186;5.790;2023-07-02T07:21:30;99042.38;;;22.85;100.00
46129;BME280;31860;45.186;5.790;2023-07-02T07:23:55;99049.41;;;22.86;100.00
46129;BME280;31860;45.186;5.790;2023-07-02T07:26:21;99033.34;;;22.88;100.00
46129;BME280;31860;45.186;5.790;2023-07-02T07:28:47;99034.13;;;22.90;100.00
46129;BME280;31860;45.186;5.790;2023-07-02T07:31:12;99032.34;;;22.90;100.00
46129;BME280;31860;45.186;5.790;2023-07-02T07:33:37;99036.56;;;22.94;100.00
46129;BME280;31860;45.186;5.790;2023-07-02T07:36:04;99039.13;;;22.96;100.00
46129;BME280;31860;45.186;5.790;2023-07-02T07:38:29;99028.31;;;22.99;100.00
46129;BME280;31860;45.186;5.790;2023-07-02T07:40:55;99021.09;;;23.01;100.00
46129;BME280;31860;45.186;5.790;2023-07-02T07:43:20;99021.00;;;23.02;100.00
46129;BME280;31860;45.186;5.790;2023-07-02T07:45:46;99025.41;;;23.03;100.00
46129;BME280;31860;45.186;5.790;2023-07-02T07:48:11;99024.41;;;23.06;100.00
46129;BME280;31860;45.186;5.790;2023-07-02T07:50:37;99013.66;;;23.07;100.00
46129;BME280;31860;45.186;5.790;2023-07-02T07:53:02;99014.44;;;23.09;100.00
46129;BME280;31860;45.186;5.790;2023-07-02T07:55:28;99005.38;;;23.12;100.00
46129;BME280;31860;45.186;5.790;2023-07-02T07:57:53;99000.94;;;23.12;100.00
46129;BME280;31860;45.186;5.790;2023-07-02T08:00:19;99000.84;;;23.14;100.00
46129;BME280;31860;45.186;5.790;2023-07-02T08:02:45;98995.50;;;23.14;100.00
46129;BME280;31860;45.186;5.790;2023-07-02T08:05:12;99000.84;;;23.14;100.00
46129;BME280;31860;45.186;5.790;2023-07-02T08:07:39;98996.28;;;23.16;100.00
46129;BME280;31860;45.186;5.790;2023-07-02T08:10:05;99001.53;;;23.17;100.00
46129;BME280;31860;45.186;5.790;2023-07-02T08:12:33;98993.47;;;23.19;100.00
46129;BME280;31860;45.186;5.790;2023-07-02T08:14:58;99003.09;;;23.21;100.00
46129;BME280;31860;45.186;5.790;2023-07-02T08:17:24;99003.97;;;23.22;100.00
46129;BME280;31860;45.186;5.790;2023-07-02T08:19:49;99002.06;;;23.24;100.00
46129;BME280;31860;45.186;5.790;2023-07-02T08:22:15;99001.06;;;23.26;100.00
46129;BME280;31860;45.186;5.790;2023-07-02T08:24:41;98995.53;;;23.29;100.00
46129;BME280;31860;45.186;5.790;2023-07-02T08:27:06;99001.50;;;23.34;100.00
46129;BME280;31860;45.186;5.790;2023-07-02T08:29:31;98998.69;;;23.37;100.00
46129;BME280;31860;45.186;5.790;2023-07-02T08:31:57;98992.25;;;23.41;100.00
46129;BME280;31860;45.186;5.790;2023-07-02T08:34:23;98988.47;;;23.45;100.00
46129;BME280;31860;45.186;5.790;2023-07-02T08:36:48;98985.63;;;23.48;100.00
46129;BME280;31860;45.186;5.790;2023-07-02T08:39:14;98987.97;;;23.55;100.00
46129;BME280;31860;45.186;5.790;2023-07-02T08:41:44;98981.50;;;23.59;100.00
46129;BME280;31860;45.186;5.790;2023-07-02T08:44:11;98980.31;;;23.64;100.00
46129;BME280;31860;45.186;5.790;2023-07-02T08:46:38;98980.03;;;23.69;100.00
46129;BME280;31860;45.186;5.790;2023-07-02T08:49:04;98977.13;;;23.73;100.00
46129;BME280;31860;45.186;5.790;2023-07-02T08:51:29;98979.59;;;23.76;100.00
46129;BME280;31860;45.186;5.790;2023-07-02T08:53:55;98981.91;;;23.82;100.00
46129;BME280;31860;45.186;5.790;2023-07-02T08:56:20;98986.16;;;23.86;100.00
46129;BME280;31860;45.186;5.790;2023-07-02T08:58:45;98979.78;;;23.89;100.00
46129;BME280;31860;45.186;5.790;2023-07-02T09:01:13;98981.28;;;23.93;100.00
46129;BME280;31860;45.186;5.790;2023-07-02T09:03:39;98973.91;;;23.98;100.00
46129;BME280;31860;45.186;5.790;2023-07-02T09:06:06;98970.16;;;24.02;100.00
46129;BME280;31860;45.186;5.790;2023-07-02T09:08:32;98973.50;;;24.05;100.00
46129;BME280;31860;45.186;5.790;2023-07-02T09:11:13;98967.97;;;24.08;100.00
46129;BME280;31860;45.186;5.790;2023-07-02T09:16:08;98964.94;;;24.14;100.00
46129;BME280;31860;45.186;5.790;2023-07-02T09:18:34;98966.50;;;24.18;100.00
46129;BME280;31860;45.186;5.790;2023-07-02T09:20:59;98960.97;;;24.21;100.00
46129;BME280;31860;45.186;5.790;2023-07-02T09:23:34;98955.53;;;24.23;100.00
46129;BME280;31860;45.186;5.790;2023-07-02T09:26:01;98959.81;;;24.25;100.00
46129;BME280;31860;45.186;5.790;2023-07-02T09:28:26;98963.19;;;24.29;100.00
46129;BME280;31860;45.186;5.790;2023-07-02T09:30:54;98962.16;;;24.31;100.00
46129;BME280;31860;45.186;5.790;2023-07-02T09:33:20;98956.59;;;24.34;100.00
46129;BME280;31860;45.186;5.790;2023-07-02T09:35:46;98960.06;;;24.36;100.00
46129;BME280;31860;45.186;5.790;2023-07-02T09:38:12;98958.06;;;24.40;100.00
46129;BME280;31860;45.186;5.790;2023-07-02T09:40:45;98954.44;;;24.41;100.00
46129;BME280;31860;45.186;5.790;2023-07-02T09:43:11;98949.88;;;24.43;100.00
46129;BME280;31860;45.186;5.790;2023-07-02T09:45:37;98946.91;;;24.48;100.00
46129;BME280;31860;45.186;5.790;2023-07-02T09:48:04;98937.97;;;24.49;100.00
46129;BME280;31860;45.186;5.790;2023-07-02T09:50:31;98929.84;;;24.50;100.00
46129;BME280;31860;45.186;5.790;2023-07-02T09:52:57;98934.16;;;24.53;100.00
46129;BME280;31860;45.186;5.790;2023-07-02T09:55:23;98929.47;;;24.56;100.00
46129;BME280;31860;45.186;5.790;2023-07-02T09:57:48;98919.66;;;24.57;100.00
46129;BME280;31860;45.186;5.790;2023-07-02T10:00:15;98923.84;;;24.61;100.00
46129;BME280;31860;45.186;5.790;2023-07-02T10:02:40;98930.06;;;24.61;100.00
46129;BME280;31860;45.186;5.790;2023-07-02T10:05:06;98924.53;;;24.64;100.00
46129;BME280;31860;45.186;5.790;2023-07-02T10:07:32;98932.34;;;24.67;100.00
46129;BME280;31860;45.186;5.790;2023-07-02T10:09:58;98918.03;;;24.68;100.00
46129;BME280;31860;45.186;5.790;2023-07-02T10:12:25;98918.78;;;24.70;100.00
46129;BME280;31860;45.186;5.790;2023-07-02T10:14:52;98916.84;;;24.74;100.00
46129;BME280;31860;45.186;5.790;2023-07-02T10:20:00;98914.84;;;24.77;100.00
46129;BME280;31860;45.186;5.790;2023-07-02T10:22:26;98924.47;;;24.80;100.00
46129;BME280;31860;45.186;5.790;2023-07-02T10:24:55;98921.72;;;24.81;100.00
46129;BME280;31860;45.186;5.790;2023-07-02T10:27:39;98931.34;;;24.84;100.00
46129;BME280;31860;45.186;5.790;2023-07-02T10:30:06;98931.25;;;24.85;100.00
46129;BME280;31860;45.186;5.790;2023-07-02T10:32:33;98927.63;;;24.86;100.00
46129;BME280;31860;45.186;5.790;2023-07-02T10:35:00;98921.25;;;24.89;100.00
46129;BME280;31860;45.186;5.790;2023-07-02T10:37:35;98914.94;;;24.90;100.00
46129;BME280;31860;45.186;5.790;2023-07-02T10:40:08;98908.63;;;24.91;100.00
46129;BME280;31860;45.186;5.790;2023-07-02T10:42:48;98912.06;;;24.93;100.00
46129;BME280;31860;45.186;5.790;2023-07-02T10:45:14;98916.38;;;24.95;100.00
46129;BME280;31860;45.186;5.790;2023-07-02T10:47:40;98918.09;;;24.96;100.00
46129;BME280;31860;45.186;5.790;2023-07-02T10:50:19;98914.44;;;24.97;100.00
46129;BME280;31860;45.186;5.790;2023-07-02T10:52:46;98912.66;;;24.98;100.00
46129;BME280;31860;45.186;5.790;2023-07-02T10:55:23;98912.53;;;24.99;100.00
46129;BME280;31860;45.186;5.790;2023-07-02T10:57:50;98916.09;;;25.00;100.00
46129;BME280;31860;45.186;5.790;2023-07-02T11:00:18;98907.09;;;25.01;100.00
46129;BME280;31860;45.186;5.790;2023-07-02T11:02:44;98917.78;;;25.01;100.00
46129;BME280;31860;45.186;5.790;2023-07-02T11:05:09;98915.88;;;25.03;100.00
46129;BME280;31860;45.186;5.790;2023-07-02T11:07:38;98914.94;;;25.04;99.62
46129;BME280;31860;45.186;5.790;2023-07-02T11:10:05;98913.97;;;25.05;99.92
46129;BME280;31860;45.186;5.790;2023-07-02T11:12:31;98918.34;;;25.06;100.00
46129;BME280;31860;45.186;5.790;2023-07-02T11:15:09;98915.59;;;25.07;99.76
46129;BME280;31860;45.186;5.790;2023-07-02T11:17:35;98911.97;;;25.08;100.00
46129;BME280;31860;45.186;5.790;2023-07-02T11:20:00;98914.53;;;25.10;100.00
46129;BME280;31860;45.186;5.790;2023-07-02T11:22:33;98915.41;;;25.10;100.00
46129;BME280;31860;45.186;5.790;2023-07-02T11:25:26;98915.28;;;25.12;99.73
46129;BME280;31860;45.186;5.790;2023-07-02T11:28:02;98909.94;;;25.12;100.00
46129;BME280;31860;45.186;5.790;2023-07-02T11:30:27;98911.47;;;25.16;100.00
46129;BME280;31860;45.186;5.790;2023-07-02T11:32:54;98907.84;;;25.17;100.00
46129;BME280;31860;45.186;5.790;2023-07-02T11:35:20;98906.78;;;25.19;100.00
46129;BME280;31860;45.186;5.790;2023-07-02T11:37:47;98908.50;;;25.20;100.00
46129;BME280;31860;45.186;5.790;2023-07-02T11:40:14;98907.44;;;25.23;100.00
46129;BME280;31860;45.186;5.790;2023-07-02T11:42:42;98907.38;;;25.24;100.00
46129;BME280;31860;45.186;5.790;2023-07-02T11:45:08;98903.63;;;25.27;100.00
46129;BME280;31860;45.186;5.790;2023-07-02T11:47:34;98910.59;;;25.29;100.00
46129;BME280;31860;45.186;5.790;2023-07-02T11:49:59;98897.13;;;25.31;100.00
46129;BME280;31860;45.186;5.790;2023-07-02T11:52:25;98903.22;;;25.33;100.00
46129;BME280;31860;45.186;5.790;2023-07-02T11:54:50;98904.00;;;25.35;100.00
46129;BME280;31860;45.186;5.790;2023-07-02T11:57:16;98902.19;;;25.35;100.00
46129;BME280;31860;45.186;5.790;2023-07-02T11:59:42;98903.88;;;25.36;100.00
46129;BME280;31860;45.186;5.790;2023-07-02T12:02:07;98896.72;;;25.37;100.00
46129;BME280;31860;45.186;5.790;2023-07-02T12:04:33;98900.19;;;25.39;100.00
46129;BME280;31860;45.186;5.790;2023-07-02T12:06:59;98893.03;;;25.40;100.00
46129;BME280;31860;45.186;5.790;2023-07-02T12:09:26;98891.19;;;25.40;100.00
46129;BME280;31860;45.186;5.790;2023-07-02T12:11:52;98885.78;;;25.42;100.00
46129;BME280;31860;45.186;5.790;2023-07-02T12:14:18;98891.84;;;25.44;100.00
46129;BME280;31860;45.186;5.790;2023-07-02T12:16:43;98881.09;;;25.45;100.00
46129;BME280;31860;45.186;5.790;2023-07-02T12:19:08;98883.66;;;25.47;100.00
46129;BME280;31860;45.186;5.790;2023-07-02T12:21:34;98888.91;;;25.48;100.00
46129;BME280;31860;45.186;5.790;2023-07-02T12:23:59;98876.38;;;25.49;100.00
46129;BME280;31860;45.186;5.790;2023-07-02T12:26:25;98880.75;;;25.50;99.20
46129;BME280;31860;45.186;5.790;2023-07-02T12:28:50;98883.34;;;25.51;96.46
46129;BME280;31860;45.186;5.790;2023-07-02T12:31:16;98885.06;;;25.52;93.98
46129;BME280;31860;45.186;5.790;2023-07-02T12:33:41;98891.19;;;25.54;92.94
46129;BME280;31860;45.186;5.790;2023-07-02T12:36:06;98888.50;;;25.54;93.14
46129;BME280;31860;45.186;5.790;2023-07-02T12:38:32;98893.75;;;25.56;94.28
46129;BME280;31860;45.186;5.790;2023-07-02T12:40:57;98890.97;;;25.57;93.74
46129;BME280;31860;45.186;5.790;2023-07-02T12:43:23;98887.34;;;25.58;93.77
46129;BME280;31860;45.186;5.790;2023-07-02T12:45:48;98889.16;;;25.58;92.86
46129;BME280;31860;45.186;5.790;2023-07-02T12:48:13;98890.03;;;25.58;92.08
46129;BME280;31860;45.186;5.790;2023-07-02T12:50:39;98882.94;;;25.57;91.36